ADDS TAF Board INFO
 
 

IDs: Format: Expanded Condensed

KPHX - Phoenix/Sky Harbor, AZ, US

Issued at 2052 UTC 24 Jul 2014
Time2051Z24/22Z24/23Z25/00Z25/01Z25/02Z25/03Z25/04Z25/05Z25/06Z25/07Z25/08Z25/09Z25/10Z
TypeOBSPRVLPRVLPRVLPRVLPRVLPRVLPRVLPRVLPRVLPRVLPRVLPRVLPRVL
Vis10>6>6>6>6>6>6>6>6>6>6>6>6>6
Cig----------------------------
CoverSCTSCTSCTSCTSCTSCTSCTSCTSCTSCTSCTSCTSCTSCT
FltCat--VFRVFRVFRVFRVFRVFRVFRVFRVFRVFRVFRVFRVFR
Wx----------------------------
WDir170190190190250250250250250250VRBVRBVRBVRB
WSpd98887777775555
WGst----------------------------
R07/25
XWnd-9-8-8-8-2-2-2-2-2-2VRBVRBVRBVRB
HWnd2-1-1-1-7-7-7-7-7-7VRBVRBVRBVRB
R08/26
XWnd-9-8-8-8-2-2-2-2-2-2VRBVRBVRBVRB
HWnd2-1-1-1-7-7-7-7-7-7VRBVRBVRBVRB
Raw TAF
KPHX 242052Z 2421/2518 19008KT P6SM FEW140 SCT250
  FM250100 25007KT P6SM FEW140 SCT250
  FM250700 VRB05KT P6SM FEW080 SCT250


Raw METAR
KPHX 242051Z 17009KT 10SM FEW120 FEW170 SCT250 46/08 A2977 RMK AO2 SLP057 CB DSNT SW AND NW T04560078 56020

TAF Board Legend

Hazard Green Yellow Red Magenta
Visibility (sm) >5 >2.99 >0.99 <=0.99
Ceiling (100 ft) >30 >9.99 >4.99 <=4.99
Wind Speed (kt) <10 <20 <30 >=30
Wind Gust (kt) <10 <20 <30 >=30
Weather No Wx Reported Light precipitation Moderate precipitation Heavy precipitation
Flight Category VFR MVFR IFR LIFR

Page loaded:  21:43 UTC  |   02:43 PM Pacific  |   03:43 PM Mountain  |   04:43 PM Central  |   05:43 PM Eastern

 

ADVISORIES

FORECASTS

FORECASTS

OBSERVATIONS

USER TOOLS

ABOUT US